Melbourne, Florida
Current Conditions -  °F | °C
As of 7:53 AM on Friday 19 Dec 2014 (Local Time) from KMLB Reporting Station
Smoke Smoke  
Wind Chill: 51°   Ceiling: Unl
Heat Index: 51°   Visibility: 6mi
Dew Point: 49°   Wind: 6mph
Humidity: 92%   Direction: 310°NW
Pressure: 30.11"   Gusts: NA
Location:  28.08°N, 80.61°W
Report Text: KMLB 191253Z 31005KT 6SM FU CLR 11/09 A3011 RMK AO2 SLP196 T01060094
Loading
Personal Weather Stations






























Interactive Weather Map New forecast layout! Learn more

10-Day Weather Forecast

Advertisements
Track Severe Weather on mobile